Piedra Clavada, Argentina
Current Conditions -  °F | °C
As of 3:00 PM on Friday 31 Oct 2014 (Local Time) from SAVC Reporting Station
Scattered Clouds Scattered Clouds  
Wind Chill:   Ceiling: Unl
Heat Index:   Visibility: 6mi
Dew Point: -3°   Wind: 12mph
Humidity: 46%   Direction: 180°S
Pressure: 30.27"   Gusts: NA
Location:  43.64°S, 67.36°W
Report Text: SAVC 311800Z 18010KT 080V250 9999 FEW025 SCT030 08/M03 Q1025
Loading
Personal Weather Stations






























Interactive Weather Map
Tropical Storm Tracking
New forecast layout! Learn more

10-Day Weather Forecast

Advertisements
Track Severe Weather on mobile